Time;durP1;ratioP1;P1;durP2;ratioP2;P2;SDS_P1;SDS_P2;PMS_P1;PMS_P2;Temp;Humidity;BMP_temperature;BMP_pressure;BME280_temperature;BME280_humidity;BME280_pressure;Samples;Min_cycle;Max_cycle;Signal;HPM_P1;HPM_P2
2022/05/05 00:01:16;;;;;;;;;18.80;18.80;;;;;18.78;43.67;99562.38;5012133;28;8862;-75
2022/05/05 00:03:46;;;;;;;;;20.50;20.00;;;;;18.78;43.68;99565.00;5028453;28;9031;-76
2022/05/05 00:06:14;;;;;;;;;18.60;18.60;;;;;18.73;43.90;99564.28;5030180;28;8862;-77
2022/05/05 00:08:43;;;;;;;;;18.40;18.40;;;;;18.74;43.64;99563.38;5051267;28;8866;-75
2022/05/05 00:16:46;;;;;;;;;17.75;16.50;;;;;18.75;43.90;99561.59;5078237;28;8851;-77
2022/05/05 00:19:15;;;;;;;;;20.50;19.00;;;;;18.72;44.32;99564.38;5070619;28;8909;-78
2022/05/05 00:21:43;;;;;;;;;19.25;17.25;;;;;18.70;44.63;99557.34;5069553;28;8852;-78
2022/05/05 00:24:13;;;;;;;;;21.75;19.25;;;;;18.58;45.03;99568.34;5082368;28;8888;-77
2022/05/05 00:26:41;;;;;;;;;21.25;20.50;;;;;18.48;45.63;99559.81;5032979;28;8932;-77
2022/05/05 00:29:12;;;;;;;;;22.25;22.00;;;;;18.45;46.01;99562.59;5049464;28;9656;-76
2022/05/05 00:31:41;;;;;;;;;21.25;21.00;;;;;18.45;46.15;99556.41;5005337;28;8834;-78
2022/05/05 00:34:09;;;;;;;;;22.50;21.75;;;;;18.46;45.80;99558.16;5033342;28;8847;-77
2022/05/05 00:36:38;;;;;;;;;22.25;21.50;;;;;18.46;45.46;99566.06;5048831;28;8862;-77
2022/05/05 00:39:08;;;;;;;;;25.25;23.00;;;;;18.45;45.17;99559.06;5047873;28;8866;-77
2022/05/05 00:41:38;;;;;;;;;21.25;20.75;;;;;18.43;44.91;99558.25;5031323;28;8840;-76
2022/05/05 00:44:08;;;;;;;;;17.75;17.50;;;;;18.43;44.65;99555.59;5048017;28;8851;-76
2022/05/05 00:46:38;;;;;;;;;24.75;22.25;;;;;18.42;45.66;99554.75;5015037;28;8844;-77
2022/05/05 00:49:07;;;;;;;;;21.50;20.50;;;;;18.40;45.84;99558.38;5030669;28;8847;-79
2022/05/05 00:51:36;;;;;;;;;24.25;23.50;;;;;18.26;46.43;99553.50;5014705;28;9562;-77
2022/05/05 00:54:05;;;;;;;;;28.25;25.25;;;;;18.23;46.60;99551.84;5031493;28;8854;-76
2022/05/05 00:56:33;;;;;;;;;27.25;26.50;;;;;18.16;46.76;99554.72;4999544;28;8851;-77
2022/05/05 00:59:03;;;;;;;;;24.75;24.75;;;;;18.12;46.46;99548.69;5047890;28;9001;-78
2022/05/05 01:01:33;;;;;;;;;29.50;28.75;;;;;18.11;46.82;99552.25;5031347;28;9778;-77
2022/05/05 01:04:07;;;;;;;;;22.75;21.25;;;;;18.08;46.80;99558.47;5047880;28;8883;-78
2022/05/05 01:06:37;;;;;;;;;27.75;27.00;;;;;18.04;47.03;99554.19;5046893;28;9660;-77
2022/05/05 01:09:07;;;;;;;;;30.00;28.50;;;;;18.02;46.86;99558.66;5030879;28;8836;-77
2022/05/05 01:11:36;;;;;;;;;16.00;12.25;;;;;17.95;46.35;99558.91;5050176;28;8850;-78
2022/05/05 01:14:05;;;;;;;;;23.50;23.50;;;;;17.74;47.30;99564.72;5050353;28;8858;-76
2022/05/05 01:16:34;;;;;;;;;23.75;22.75;;;;;17.42;48.44;99573.56;5049948;28;8866;-78
2022/05/05 01:19:05;;;;;;;;;31.75;31.00;;;;;17.06;50.19;99571.03;5030894;28;8889;-84
2022/05/05 01:21:36;;;;;;;;;32.00;29.00;;;;;16.85;50.11;99577.75;5019737;28;8849;-82
2022/05/05 01:24:05;;;;;;;;;28.00;27.00;;;;;16.72;50.35;99576.28;5012673;28;8830;-84
2022/05/05 01:29:21;;;;;;;;;26.50;25.25;;;;;16.65;50.03;99574.72;5011195;28;8846;-84
2022/05/05 01:31:50;;;;;;;;;26.00;23.75;;;;;16.65;49.81;99574.72;5028175;28;8853;-83
2022/05/05 01:34:19;;;;;;;;;33.75;31.50;;;;;16.54;50.30;99570.59;5011733;28;9017;-83
2022/05/05 01:36:50;;;;;;;;;28.00;26.25;;;;;16.48;50.50;99572.50;5011821;28;8842;-84
2022/05/05 01:39:19;;;;;;;;;32.75;29.50;;;;;16.42;51.36;99572.66;5010208;28;8891;-81
2022/05/05 01:41:48;;;;;;;;;34.00;30.75;;;;;16.25;52.30;99570.41;5027577;28;8861;-82
2022/05/05 01:44:17;;;;;;;;;34.00;31.50;;;;;16.06;53.04;99573.47;4995413;28;8838;-84
2022/05/05 01:46:46;;;;;;;;;21.25;21.25;;;;;15.97;52.94;99571.91;5028760;28;8883;-84
2022/05/05 01:49:15;;;;;;;;;28.00;26.00;;;;;16.01;53.23;99574.47;4984043;28;8880;-82
2022/05/05 01:51:44;;;;;;;;;36.25;32.25;;;;;16.07;52.93;99567.31;5051709;28;8847;-83
2022/05/05 01:54:14;;;;;;;;;8.25;8.00;;;;;16.16;52.72;99572.38;5013186;28;8862;-82
2022/05/05 01:56:47;;;;;;;;;34.25;31.00;;;;;16.18;52.68;99578.47;5038368;28;8896;-82
2022/05/05 01:59:16;;;;;;;;;31.75;29.75;;;;;16.12;53.14;99577.72;5048667;28;8850;-84
2022/05/05 02:01:45;;;;;;;;;32.50;31.25;;;;;16.17;52.34;99578.47;5048906;28;8859;-84
2022/05/05 02:04:14;;;;;;;;;32.25;31.25;;;;;16.24;52.20;99573.94;5049028;28;8983;-82
2022/05/05 02:06:43;;;;;;;;;24.75;24.50;;;;;16.33;51.99;99576.34;5066409;28;8881;-83
2022/05/05 02:09:14;;;;;;;;;30.00;29.75;;;;;16.40;51.38;99585.84;5019215;28;8874;-81
2022/05/05 02:11:43;;;;;;;;;31.50;29.50;;;;;16.45;51.16;99583.97;5063863;28;8862;-81
2022/05/05 02:14:12;;;;;;;;;32.00;28.50;;;;;16.44;51.12;99586.63;5037218;28;8897;-82
2022/05/05 02:16:41;;;;;;;;;30.75;29.00;;;;;16.43;51.42;99587.56;5065786;28;8893;-82
2022/05/05 02:19:10;;;;;;;;;27.25;26.75;;;;;16.41;50.45;99594.59;5033244;28;8834;-84
2022/05/05 02:21:39;;;;;;;;;29.00;26.75;;;;;16.44;50.34;99600.66;5073677;28;8942;-83
2022/05/05 02:24:08;;;;;;;;;26.50;26.25;;;;;16.45;50.45;99596.28;5049220;28;8839;-83
2022/05/05 02:26:39;;;;;;;;;27.75;26.75;;;;;16.53;50.02;99600.44;5050899;28;8825;-84
2022/05/05 02:29:08;;;;;;;;;27.00;26.25;;;;;16.62;49.84;99596.72;5068354;28;8851;-83
2022/05/05 02:31:37;;;;;;;;;27.50;27.00;;;;;16.65;49.57;99595.78;5070298;28;8862;-83
2022/05/05 02:34:08;;;;;;;;;24.00;24.00;;;;;16.74;49.42;99600.81;5081362;28;8860;-82
2022/05/05 02:39:24;;;;;;;;;33.75;30.25;;;;;16.91;50.29;99605.69;5011772;28;8894;-81
2022/05/05 02:41:54;;;;;;;;;33.25;32.75;;;;;16.97;49.97;99607.31;5011563;28;8877;-85
2022/05/05 02:44:23;;;;;;;;;36.00;33.75;;;;;16.99;49.83;99613.41;4998748;28;9028;-83
2022/05/05 02:46:52;;;;;;;;;32.50;30.00;;;;;16.99;49.83;99610.75;5009465;28;8822;-83
2022/05/05 02:49:21;;;;;;;;;34.50;30.75;;;;;16.99;50.14;99605.50;5009909;28;8842;-83
2022/05/05 02:51:50;;;;;;;;;36.75;32.00;;;;;16.99;49.86;99605.50;5026625;28;8834;-84
2022/05/05 02:57:07;;;;;;;;;28.75;28.75;;;;;16.97;49.56;99613.44;5030882;28;8862;-83
2022/05/05 02:59:36;;;;;;;;;36.00;31.75;;;;;16.97;49.32;99612.56;5031670;28;8836;-84
2022/05/05 03:02:06;;;;;;;;;90.50;85.00;;;;;16.97;48.74;99613.44;5050250;28;8855;-84
2022/05/05 03:04:35;;;;;;;;;68.33;55.00;;;;;17.00;48.72;99623.03;5036058;28;11090;-84
2022/05/05 03:07:04;;;;;;;;;48.75;41.25;;;;;17.01;49.09;99608.94;5036171;28;9022;-83
2022/05/05 03:09:33;;;;;;;;;34.00;32.25;;;;;17.02;48.86;99619.44;5035567;28;8831;-83
2022/05/05 03:12:03;;;;;;;;;28.25;28.00;;;;;17.04;48.96;99617.63;5056676;28;8974;-83
2022/05/05 03:14:34;;;;;;;;;34.00;28.50;;;;;17.05;48.69;99616.75;5037775;28;8881;-86
2022/05/05 03:17:03;;;;;;;;;36.75;33.00;;;;;17.06;49.02;99622.88;5049206;28;8878;-86
2022/05/05 03:19:32;;;;;;;;;38.25;34.75;;;;;17.06;49.75;99620.25;5071411;28;8965;-83
2022/05/05 03:22:01;;;;;;;;;40.00;36.25;;;;;17.06;49.69;99623.72;5071587;28;8832;-82
2022/05/05 03:24:30;;;;;;;;;40.50;36.00;;;;;17.06;49.92;99625.50;5055585;28;8923;-85
2022/05/05 03:27:04;;;;;;;;;36.00;32.25;;;;;17.06;49.36;99628.16;5038413;28;8876;-85
2022/05/05 03:29:35;;;;;;;;;34.75;31.50;;;;;17.05;48.85;99624.66;5056252;28;8875;-85
2022/05/05 03:32:05;;;;;;;;;27.25;27.25;;;;;17.01;47.64;99628.25;5051671;28;8839;-84
2022/05/05 03:34:34;;;;;;;;;30.25;28.00;;;;;17.02;47.32;99630.00;5035708;28;8842;-82
2022/05/05 03:37:02;;;;;;;;;27.25;27.25;;;;;17.00;47.92;99634.44;5053189;28;8865;-83
2022/05/05 03:39:32;;;;;;;;;28.00;28.00;;;;;17.04;48.20;99632.59;5002061;28;8903;-84
2022/05/05 03:42:01;;;;;;;;;28.75;28.75;;;;;17.05;48.22;99629.94;5023261;28;8862;-84
2022/05/05 03:44:31;;;;;;;;;83.25;73.50;;;;;17.10;48.54;99629.78;5033792;28;8855;-83
2022/05/05 03:47:09;;;;;;;;;33.00;30.00;;;;;17.13;48.47;99627.09;5035893;28;10321;-82
2022/05/05 03:49:38;;;;;;;;;32.50;31.00;;;;;17.17;48.26;99633.16;5029920;28;8945;-83
2022/05/05 03:52:07;;;;;;;;;30.25;29.25;;;;;17.19;47.79;99637.47;5054869;28;8864;-84
2022/05/05 03:54:37;;;;;;;;;30.75;28.50;;;;;17.25;47.94;99628.53;5070473;28;9026;-83
2022/05/05 03:57:06;;;;;;;;;44.50;38.50;;;;;17.30;48.49;99637.19;5006939;28;8828;-84
2022/05/05 03:59:35;;;;;;;;;41.00;34.25;;;;;17.33;47.77;99632.69;5009425;28;8874;-84
2022/05/05 04:02:05;;;;;;;;;32.00;31.75;;;;;17.41;47.71;99636.88;5009815;28;8851;-83
2022/05/05 04:04:35;;;;;;;;;21.00;18.50;;;;;17.45;47.48;99643.81;5010216;28;8871;-84
2022/05/05 04:07:05;;;;;;;;;32.00;29.00;;;;;17.45;47.04;99633.28;5027166;28;8845;-85
2022/05/05 04:09:34;;;;;;;;;54.00;44.50;;;;;17.46;48.43;99643.75;4980876;28;8884;-84
2022/05/05 04:12:03;;;;;;;;;80.00;69.50;;;;;17.49;47.96;99643.69;4995953;28;8861;-86
2022/05/05 04:14:33;;;;;;;;;37.00;34.75;;;;;17.38;48.78;99653.66;4980127;28;11023;-83
2022/05/05 04:17:02;;;;;;;;;47.00;40.25;;;;;17.35;49.20;99659.00;4992570;28;8879;-84
2022/05/05 04:19:31;;;;;;;;;38.00;35.25;;;;;17.43;49.10;99656.16;5009405;28;8895;-84
2022/05/05 04:22:03;;;;;;;;;35.75;33.25;;;;;17.47;49.06;99660.47;4992962;28;8847;-84
2022/05/05 04:24:32;;;;;;;;;31.00;31.00;;;;;17.55;48.88;99663.75;5007858;28;8861;-84
2022/05/05 04:27:02;;;;;;;;;42.00;35.75;;;;;17.69;48.56;99653.69;4997955;28;8863;-84
2022/05/05 04:29:31;;;;;;;;;34.75;32.00;;;;;17.77;47.90;99650.84;5021319;28;8912;-83
2022/05/05 04:32:02;;;;;;;;;33.75;32.75;;;;;17.85;47.24;99658.56;5016019;28;8829;-82
2022/05/05 04:34:32;;;;;;;;;36.25;33.75;;;;;17.92;46.76;99654.84;5024497;28;8908;-84
2022/05/05 04:37:03;;;;;;;;;42.50;35.25;;;;;18.01;48.23;99661.63;5030317;28;8842;-84
2022/05/05 04:39:32;;;;;;;;;43.25;35.50;;;;;18.12;48.92;99657.75;5027732;28;8963;-83
2022/05/05 04:42:01;;;;;;;;;40.75;35.00;;;;;17.99;46.91;99664.28;5013236;28;8845;-84
2022/05/05 04:44:34;;;;;;;;;47.75;39.75;;;;;18.00;47.59;99667.81;4997169;28;8850;-85
2022/05/05 04:47:04;;;;;;;;;42.25;37.00;;;;;18.18;48.04;99655.84;4995355;28;8830;-85
2022/05/05 04:49:33;;;;;;;;;44.25;37.75;;;;;18.35;48.45;99664.09;4996359;28;8904;-84
2022/05/05 04:52:04;;;;;;;;;45.25;38.00;;;;;18.54;47.71;99667.03;5017865;28;8881;-85
2022/05/05 04:54:33;;;;;;;;;43.00;37.00;;;;;18.68;47.94;99675.41;5004990;28;8883;-85
2022/05/05 04:57:02;;;;;;;;;42.50;35.75;;;;;18.84;47.63;99659.09;4977129;28;8876;-83
2022/05/05 04:59:31;;;;;;;;;42.25;36.50;;;;;18.99;47.81;99669.16;5013852;28;8939;-85
2022/05/05 05:02:00;;;;;;;;;42.50;36.25;;;;;19.10;47.45;99668.81;4995266;28;8942;-84
2022/05/05 05:04:29;;;;;;;;;44.75;37.75;;;;;19.22;47.31;99670.16;4994169;28;8947;-85
2022/05/05 05:06:58;;;;;;;;;40.75;34.50;;;;;19.33;47.33;99668.00;5008608;28;8843;-84
2022/05/05 05:09:29;;;;;;;;;40.25;36.25;;;;;19.45;46.93;99664.06;5046773;28;8821;-85
2022/05/05 05:11:58;;;;;;;;;38.75;34.75;;;;;19.58;45.94;99664.50;5067743;28;8904;-86
2022/05/05 05:14:27;;;;;;;;;37.00;33.00;;;;;19.67;44.25;99658.88;5035052;28;8926;-85
2022/05/05 05:16:56;;;;;;;;;50.25;41.50;;;;;19.81;44.94;99666.34;5034634;28;8837;-86
2022/05/05 05:19:27;;;;;;;;;48.00;40.75;;;;;19.91;44.91;99662.47;5067453;28;8857;-85
2022/05/05 05:21:56;;;;;;;;;41.25;35.50;;;;;20.06;44.42;99661.88;5060200;28;8916;-85
2022/05/05 05:24:25;;;;;;;;;59.75;48.75;;;;;20.19;42.73;99664.09;5031658;28;8887;-85
2022/05/05 05:26:56;;;;;;;;;43.50;36.25;;;;;20.34;42.02;99657.31;5048136;28;8868;-85
2022/05/05 05:29:25;;;;;;;;;38.00;33.50;;;;;20.45;41.31;99665.69;5031397;28;8839;-85
2022/05/05 05:31:56;;;;;;;;;35.75;33.75;;;;;20.59;40.81;99663.38;5026280;28;8911;-82
2022/05/05 05:34:25;;;;;;;;;39.75;35.75;;;;;20.74;41.40;99669.03;5050669;28;8849;-83
2022/05/05 05:36:54;;;;;;;;;39.25;34.25;;;;;20.90;42.01;99662.16;5045105;28;8858;-83
2022/05/05 05:39:23;;;;;;;;;38.00;34.25;;;;;21.03;42.12;99670.47;5061058;28;8867;-73
2022/05/05 05:41:51;;;;;;;;;32.75;30.75;;;;;21.14;42.02;99670.88;5067196;28;8855;-74
2022/05/05 05:44:22;;;;;;;;;35.50;33.00;;;;;21.31;42.71;99669.31;5061308;28;8939;-75
2022/05/05 05:46:50;;;;;;;;;45.75;38.75;;;;;21.40;42.59;99671.56;5029735;28;8835;-75
2022/05/05 05:49:19;;;;;;;;;46.50;40.25;;;;;21.50;42.14;99666.75;5048638;28;8851;-75
2022/05/05 05:51:48;;;;;;;;;44.50;37.25;;;;;21.66;42.16;99672.25;5048997;28;8916;-72
2022/05/05 05:54:17;;;;;;;;;36.00;32.75;;;;;21.75;42.39;99669.19;5048351;28;8855;-75
2022/05/05 05:56:46;;;;;;;;;43.75;37.50;;;;;21.86;41.62;99669.56;5063697;28;8862;-73
2022/05/05 05:59:15;;;;;;;;;44.50;37.00;;;;;21.96;40.99;99670.84;5048136;28;8827;-74
2022/05/05 06:04:31;;;;;;;;;43.00;36.25;;;;;22.18;40.89;99667.22;5049470;28;8840;-74
2022/05/05 06:07:00;;;;;;;;;37.50;33.50;;;;;22.27;40.86;99665.97;5048348;28;8839;-74
2022/05/05 06:09:29;;;;;;;;;37.25;33.50;;;;;22.40;39.96;99667.13;5029174;28;8875;-75
2022/05/05 06:11:57;;;;;;;;;39.00;34.25;;;;;22.55;39.80;99663.75;5048311;28;8861;-78
2022/05/05 06:14:26;;;;;;;;;34.00;31.25;;;;;22.65;39.11;99674.78;5048949;28;8847;-78
2022/05/05 06:16:56;;;;;;;;;41.75;35.00;;;;;22.75;38.95;99664.56;5066585;28;8847;-79
2022/05/05 06:19:25;;;;;;;;;30.00;29.00;;;;;22.68;39.14;99676.41;5066488;28;9019;-78
2022/05/05 06:21:53;;;;;;;;;28.25;27.00;;;;;22.74;38.57;99669.03;5063763;28;8906;-79
2022/05/05 06:24:23;;;;;;;;;32.25;30.25;;;;;22.88;38.06;99670.13;5067061;28;8868;-78
2022/05/05 06:26:52;;;;;;;;;40.50;36.00;;;;;23.00;37.43;99680.16;5026380;28;8960;-76
2022/05/05 06:29:20;;;;;;;;;25.75;23.75;;;;;23.18;36.80;99677.56;5012090;28;8852;-78
2022/05/05 06:31:48;;;;;;;;;29.25;27.00;;;;;23.29;37.06;99686.72;5011101;28;8848;-77
2022/05/05 06:34:19;;;;;;;;;24.75;24.00;;;;;23.32;36.43;99685.69;5012418;28;8824;-77
2022/05/05 06:36:47;;;;;;;;;23.50;22.50;;;;;23.50;38.05;99689.22;5045920;28;8859;-79
2022/05/05 06:39:16;;;;;;;;;26.75;24.50;;;;;23.66;36.67;99687.47;5028947;28;8997;-77
2022/05/05 06:41:45;;;;;;;;;30.00;27.50;;;;;23.85;37.26;99686.53;5029909;28;9085;-78
2022/05/05 06:44:13;;;;;;;;;26.50;24.75;;;;;23.95;36.66;99685.13;5046173;28;8986;-78
2022/05/05 06:46:42;;;;;;;;;25.75;24.00;;;;;24.03;36.06;99692.69;5029037;28;8867;-79
2022/05/05 06:49:12;;;;;;;;;29.75;26.25;;;;;24.11;35.46;99693.13;5028441;28;8856;-77
2022/05/05 06:51:42;;;;;;;;;30.75;26.50;;;;;24.21;35.19;99696.16;5012985;28;8852;-77
2022/05/05 06:54:10;;;;;;;;;24.75;24.50;;;;;24.23;34.78;99694.25;5029238;28;8848;-78
2022/05/05 06:56:39;;;;;;;;;24.00;24.00;;;;;24.35;35.80;99701.59;5045395;28;8866;-79
2022/05/05 06:59:08;;;;;;;;;27.00;25.00;;;;;24.41;35.43;99695.91;5045318;28;8830;-76
2022/05/05 07:01:56;;;;;;;;;21.00;21.00;;;;;24.48;35.12;99705.31;5047403;28;9015;-79
2022/05/05 07:07:23;;;;;;;;;25.25;25.25;;;;;24.68;36.11;99701.53;5022504;28;8888;-78
2022/05/05 07:12:38;;;;;;;;;24.75;24.00;;;;;24.85;34.79;99708.59;5048261;28;8988;-79
2022/05/05 07:15:08;;;;;;;;;28.75;28.25;;;;;24.92;34.79;99710.94;5013386;28;8872;-77
2022/05/05 07:17:37;;;;;;;;;22.00;22.00;;;;;24.98;34.12;99711.41;5048052;28;8881;-77
2022/05/05 07:20:06;;;;;;;;;25.25;24.25;;;;;25.06;35.74;99713.63;5046213;28;8858;-77
2022/05/05 07:22:36;;;;;;;;;24.25;23.75;;;;;25.04;34.07;99711.06;5014508;28;8969;-79
2022/05/05 07:25:05;;;;;;;;;25.00;23.25;;;;;25.10;33.99;99712.50;5049646;28;8859;-77
2022/05/05 07:27:34;;;;;;;;;25.00;24.50;;;;;25.21;34.37;99712.75;5013013;28;8866;-77
2022/05/05 07:30:04;;;;;;;;;23.25;22.50;;;;;25.31;35.42;99714.91;5046373;28;8843;-77
2022/05/05 07:32:32;;;;;;;;;25.25;24.50;;;;;25.38;36.06;99716.28;5063084;28;8858;-78
2022/05/05 07:35:01;;;;;;;;;21.25;20.25;;;;;25.37;35.69;99711.88;5046553;28;8963;-77
2022/05/05 07:37:30;;;;;;;;;22.75;22.75;;;;;25.35;35.06;99713.75;5062789;28;8842;-79
2022/05/05 07:40:01;;;;;;;;;25.25;23.75;;;;;25.41;34.78;99713.44;5047451;28;9636;-77
2022/05/05 07:42:29;;;;;;;;;24.50;23.50;;;;;25.52;34.46;99721.66;5046716;28;8886;-78
2022/05/05 07:44:58;;;;;;;;;27.25;26.25;;;;;25.57;34.87;99726.72;5063706;28;8940;-77
2022/05/05 07:47:27;;;;;;;;;25.50;24.25;;;;;25.58;34.96;99728.44;5051879;28;8843;-78
2022/05/05 07:49:56;;;;;;;;;29.50;28.00;;;;;25.70;35.57;99729.50;5052082;28;8838;-78
2022/05/05 07:52:24;;;;;;;;;26.25;25.25;;;;;25.74;35.06;99725.69;5050844;28;8874;-77
2022/05/05 07:54:53;;;;;;;;;22.25;22.25;;;;;25.73;34.31;99721.28;5032930;28;9388;-77
2022/05/05 07:57:24;;;;;;;;;23.50;22.50;;;;;25.72;34.13;99727.59;5051294;28;8846;-78
2022/05/05 07:59:52;;;;;;;;;25.75;23.50;;;;;25.75;33.97;99732.78;5049825;28;9630;-79
2022/05/05 08:02:21;;;;;;;;;26.75;25.00;;;;;25.74;34.52;99728.38;5050751;28;9001;-77
2022/05/05 08:04:50;;;;;;;;;22.20;21.00;;;;;25.74;34.05;99726.56;5050991;28;8909;-78
2022/05/05 08:07:19;;;;;;;;;27.50;24.50;;;;;25.83;34.23;99733.16;5050822;28;8870;-78
2022/05/05 08:09:48;;;;;;;;;21.75;21.75;;;;;25.86;34.45;99723.16;5050912;28;8851;-76
2022/05/05 08:12:33;;;;;;;;;22.25;22.25;;;;;25.95;33.57;99729.75;4987430;28;8854;-78
2022/05/05 08:15:02;;;;;;;;;26.60;25.00;;;;;25.98;34.56;99736.75;5050189;28;8859;-77
2022/05/05 08:17:33;;;;;;;;;24.00;24.00;;;;;26.02;33.29;99730.25;5048986;28;8977;-77
2022/05/05 08:20:02;;;;;;;;;22.00;21.25;;;;;26.05;33.77;99738.09;5016286;28;8838;-78
2022/05/05 08:22:30;;;;;;;;;24.00;23.40;;;;;25.98;33.10;99739.41;5065710;28;9613;-77
2022/05/05 08:30:33;;;;;;;;;20.25;20.25;;;;;26.09;32.93;99744.06;5049970;28;8889;-78
2022/05/05 08:33:02;;;;;;;;;22.25;21.25;;;;;26.07;32.58;99746.88;5049233;28;8900;-79
2022/05/05 08:35:30;;;;;;;;;26.25;24.75;;;;;26.10;32.96;99740.47;5032568;28;8893;-77
2022/05/05 08:37:59;;;;;;;;;23.75;23.50;;;;;26.17;32.08;99739.13;5032767;28;8904;-78
2022/05/05 08:40:29;;;;;;;;;31.25;26.00;;;;;26.18;32.11;99747.06;5032484;28;8827;-78
2022/05/05 08:42:58;;;;;;;;;21.75;21.50;;;;;26.20;32.94;99746.94;5050347;28;8870;-78
2022/05/05 08:45:33;;;;;;;;;23.00;22.00;;;;;26.18;32.53;99744.41;5032733;28;8942;-77
2022/05/05 08:48:07;;;;;;;;;24.50;24.50;;;;;26.17;31.60;99749.81;5065623;28;8905;-78
2022/05/05 08:50:37;;;;;;;;;23.50;23.25;;;;;26.05;30.98;99746.97;5039958;28;8844;-78
2022/05/05 08:53:07;;;;;;;;;22.25;21.50;;;;;26.06;30.36;99745.13;5068932;28;9554;-79
2022/05/05 08:55:37;;;;;;;;;21.75;20.25;;;;;26.14;30.52;99750.84;5052378;28;8945;-78
2022/05/05 08:58:07;;;;;;;;;24.20;24.20;;;;;26.11;30.81;99752.88;5068494;28;8909;-78
2022/05/05 09:00:36;;;;;;;;;24.50;23.00;;;;;26.13;31.34;99751.81;5052320;28;8879;-77
2022/05/05 09:03:08;;;;;;;;;23.00;21.80;;;;;26.16;31.66;99757.00;5051870;28;9723;-78
2022/05/05 09:05:49;;;;;;;;;25.80;23.80;;;;;26.28;30.66;99757.19;5002052;28;8860;-79
2022/05/05 09:08:29;;;;;;;;;25.00;23.00;;;;;25.71;30.47;99758.81;5051811;28;8999;-78
2022/05/05 09:10:59;;;;;;;;;21.00;20.25;;;;;25.90;31.34;99758.56;5069389;28;8864;-77
2022/05/05 09:13:31;;;;;;;;;25.00;23.25;;;;;25.98;31.34;99761.66;5034564;28;9057;-79
2022/05/05 09:15:59;;;;;;;;;23.75;23.75;;;;;26.13;31.96;99765.19;5051823;28;8848;-78
2022/05/05 09:18:30;;;;;;;;;23.25;21.25;;;;;26.16;30.81;99761.47;5068117;28;8868;-78
2022/05/05 09:21:00;;;;;;;;;19.40;19.40;;;;;26.21;30.28;99764.72;5069685;28;8903;-78
2022/05/05 09:23:36;;;;;;;;;21.60;20.60;;;;;26.29;28.94;99764.25;5048008;28;8858;-78
2022/05/05 09:26:06;;;;;;;;;13.20;12.40;;;;;26.32;28.48;99766.75;4998390;28;8847;-78
2022/05/05 09:28:37;;;;;;;;;18.60;17.60;;;;;26.39;27.35;99760.91;5049244;28;8874;-78
2022/05/05 09:31:07;;;;;;;;;24.00;21.00;;;;;26.33;28.12;99766.63;5048902;28;8847;-79
2022/05/05 09:33:41;;;;;;;;;18.40;18.40;;;;;26.45;28.75;99770.34;5049124;28;8976;-78
2022/05/05 09:36:12;;;;;;;;;19.00;19.00;;;;;26.54;26.98;99760.88;5064480;28;8917;-78
2022/05/05 09:38:51;;;;;;;;;16.20;14.80;;;;;26.62;28.20;99766.66;5047988;28;8831;-79
2022/05/05 09:41:21;;;;;;;;;23.80;23.40;;;;;26.48;29.18;99759.44;5053505;28;8834;-79
2022/05/05 09:43:53;;;;;;;;;19.20;19.20;;;;;26.61;29.27;99756.88;5048829;28;8866;-78
2022/05/05 09:46:32;;;;;;;;;18.80;18.80;;;;;26.69;29.27;99761.75;5047802;28;8859;-80
2022/05/05 09:49:11;;;;;;;;;24.00;21.40;;;;;26.73;28.60;99755.25;5047605;28;8957;-78
2022/05/05 09:51:43;;;;;;;;;19.40;18.00;;;;;26.68;28.22;99752.03;5047193;28;8956;-80
2022/05/05 09:59:52;;;;;;;;;16.00;16.00;;;;;26.44;27.04;99747.22;5048793;28;8843;-78
2022/05/05 10:05:13;;;;;;;;;16.80;15.60;;;;;26.53;26.26;99753.81;4992511;28;8856;-79
2022/05/05 10:07:45;;;;;;;;;17.80;17.20;;;;;26.65;26.75;99758.41;4993025;28;9018;-79
2022/05/05 10:10:17;;;;;;;;;18.60;18.60;;;;;26.67;26.84;99752.97;5009096;28;8872;-78
2022/05/05 10:12:47;;;;;;;;;19.00;18.20;;;;;26.69;26.26;99749.22;5026578;28;8932;-79
2022/05/05 10:15:17;;;;;;;;;19.00;19.00;;;;;26.75;27.03;99751.53;5026093;28;8849;-79
2022/05/05 10:17:46;;;;;;;;;19.80;19.40;;;;;26.78;26.73;99756.66;5025871;28;8883;-79
2022/05/05 10:20:15;;;;;;;;;20.00;20.00;;;;;26.86;26.51;99747.28;5026003;28;8862;-79
2022/05/05 10:22:55;;;;;;;;;18.80;18.80;;;;;26.89;26.71;99741.75;5011224;28;8899;-80
2022/05/05 10:25:27;;;;;;;;;17.40;17.20;;;;;26.91;25.73;99753.22;5009817;28;8908;-80
2022/05/05 10:27:56;;;;;;;;;16.40;16.40;;;;;27.00;26.81;99748.09;5009554;28;8834;-78
2022/05/05 10:30:35;;;;;;;;;16.20;15.80;;;;;27.01;26.32;99754.31;5025893;28;8845;-79
2022/05/05 10:33:05;;;;;;;;;16.40;16.40;;;;;27.11;26.73;99752.75;4997666;28;8874;-79
2022/05/05 10:35:42;;;;;;;;;23.20;20.20;;;;;27.25;26.16;99759.03;5006462;28;8856;-78
2022/05/05 10:38:41;;;;;;;;;15.80;15.60;;;;;27.34;26.01;99756.63;5005843;28;8874;-79
2022/05/05 10:41:35;;;;;;;;;23.00;22.40;;;;;27.36;26.06;99754.69;4912507;29;8879;-79
2022/05/05 10:44:23;;;;;;;;;16.60;16.60;;;;;27.46;26.55;99752.25;4965831;28;8872;-78
2022/05/05 10:47:02;;;;;;;;;14.20;13.60;;;;;27.41;25.74;99757.03;4950561;28;8856;-79
2022/05/05 10:49:45;;;;;;;;;16.00;16.00;;;;;27.31;26.04;99759.47;4966966;28;8844;-78
2022/05/05 10:52:28;;;;;;;;;17.80;17.60;;;;;27.51;26.01;99758.16;4934450;28;8852;-78
2022/05/05 10:54:57;;;;;;;;;18.80;17.40;;;;;27.45;25.26;99768.41;4967219;28;8868;-81
2022/05/05 10:57:43;;;;;;;;;18.20;17.40;;;;;27.54;25.73;99763.31;4967071;28;8855;-79
2022/05/05 11:00:13;;;;;;;;;16.60;15.60;;;;;27.75;25.40;99763.69;4950665;28;8864;-78
2022/05/05 11:03:14;;;;;;;;;16.00;16.00;;;;;27.71;25.02;99762.19;4985878;28;8857;-79
2022/05/05 11:05:44;;;;;;;;;17.60;17.20;;;;;27.86;25.47;99757.56;4918007;28;8874;-79
2022/05/05 11:08:32;;;;;;;;;20.40;19.60;;;;;27.94;25.21;99762.41;4906503;28;8989;-81
2022/05/05 11:13:48;;;;;;;;;18.00;18.00;;;;;28.27;24.75;99761.88;4986400;28;8866;-79
2022/05/05 11:22:18;;;;;;;;;11.00;11.00;;;;;28.95;24.49;99747.16;4973072;28;8854;-80
2022/05/05 11:24:49;;;;;;;;;16.60;16.60;;;;;28.87;24.38;99754.94;4989947;28;8870;-78
2022/05/05 11:27:20;;;;;;;;;17.00;16.60;;;;;28.91;23.96;99756.41;4989622;28;9656;-78
2022/05/05 11:29:52;;;;;;;;;18.20;18.20;;;;;28.95;24.39;99757.91;4989550;28;8834;-78
2022/05/05 11:32:22;;;;;;;;;20.25;17.50;;;;;28.88;24.10;99751.25;4989548;28;8885;-79
2022/05/05 11:34:53;;;;;;;;;17.20;17.20;;;;;28.90;24.14;99752.03;5007229;28;8856;-78
2022/05/05 11:37:27;;;;;;;;;18.00;17.60;;;;;28.83;24.58;99756.13;4976463;28;8860;-78
2022/05/05 11:39:56;;;;;;;;;16.75;16.50;;;;;28.77;24.39;99752.06;5009251;28;8855;-78
2022/05/05 11:42:25;;;;;;;;;18.25;18.25;;;;;28.73;24.44;99747.91;5008757;28;8951;-78
2022/05/05 11:44:52;;;;;;;;;23.25;21.00;;;;;28.89;24.30;99741.41;5008606;28;8945;-79
2022/05/05 11:47:23;;;;;;;;;19.50;19.50;;;;;28.68;24.62;99738.47;5008636;28;8871;-76
2022/05/05 11:49:54;;;;;;;;;18.50;17.50;;;;;28.95;24.26;99736.41;5008300;28;8893;-75
2022/05/05 11:52:24;;;;;;;;;16.50;16.50;;;;;29.16;24.28;99733.97;5008236;28;9046;-75
2022/05/05 11:54:56;;;;;;;;;16.00;14.50;;;;;29.51;23.62;99737.69;5013441;28;8969;-75
2022/05/05 11:57:32;;;;;;;;;14.00;14.00;;;;;29.84;23.14;99736.94;5050642;28;8847;-74
2022/05/05 12:02:47;;;;;;;;;18.20;18.00;;;;;30.30;22.00;99730.63;5050934;28;8831;-75
2022/05/05 12:05:21;;;;;;;;;16.60;16.00;;;;;30.43;21.94;99724.28;5050997;28;8858;-75
2022/05/05 12:07:50;;;;;;;;;18.75;17.50;;;;;30.58;21.99;99723.03;5051068;28;8881;-75
2022/05/05 12:10:21;;;;;;;;;19.00;16.80;;;;;30.66;22.38;99725.09;5051554;28;9022;-75
2022/05/05 12:13:01;;;;;;;;;17.25;17.25;;;;;30.69;21.85;99719.47;5033802;28;8974;-75
2022/05/05 12:15:30;;;;;;;;;20.75;19.75;;;;;30.92;21.12;99712.22;5051340;28;8955;-75
2022/05/05 12:17:59;;;;;;;;;16.75;16.75;;;;;31.16;20.79;99713.84;5049842;28;8831;-76
2022/05/05 12:20:30;;;;;;;;;18.00;17.50;;;;;31.21;21.74;99714.31;5050700;28;8846;-75
2022/05/05 12:23:00;;;;;;;;;17.00;17.00;;;;;31.23;20.67;99710.50;5051351;28;8863;-76
2022/05/05 12:25:30;;;;;;;;;16.75;16.75;;;;;31.02;21.26;99710.47;5051822;28;8931;-75
2022/05/05 12:28:08;;;;;;;;;19.75;19.50;;;;;30.59;21.76;99700.53;5050620;28;8838;-74